Time;durP1;ratioP1;P1;durP2;ratioP2;P2;SDS_P1;SDS_P2;PMS_P1;PMS_P2;Temp;Humidity;BMP_temperature;BMP_pressure;BME280_temperature;BME280_humidity;BME280_pressure;Samples;Min_cycle;Max_cycle;Signal;HPM_P1;HPM_P2
2021/06/24 00:01:51;;;;;;;12.30;4.55;;;13.00;99.90;;;;;;4932454;29;20055;-90
2021/06/24 00:04:27;;;;;;;8.52;5.85;;;12.90;99.90;;;;;;4899634;29;20464;-91
2021/06/24 00:07:13;;;;;;;13.52;4.82;;;11.50;99.90;;;;;;4946817;29;20062;-89
2021/06/24 00:09:49;;;;;;;10.77;5.25;;;13.00;99.90;;;;;;4930130;29;20044;-89
2021/06/24 00:12:21;;;;;;;11.68;5.40;;;12.90;99.90;;;;;;4916424;29;20070;-89
2021/06/24 00:14:59;;;;;;;11.63;4.88;;;12.80;99.90;;;;;;4927097;29;20051;-90
2021/06/24 00:17:43;;;;;;;14.38;5.70;;;12.80;99.90;;;;;;4935736;29;20087;-88
2021/06/24 00:21:09;;;;;;;12.63;4.82;;;12.70;99.90;;;;;;4955433;29;20415;-90
2021/06/24 00:24:00;;;;;;;8.50;4.38;;;12.60;99.90;;;;;;4938062;29;20059;-90
2021/06/24 00:26:33;;;;;;;7.43;4.82;;;12.50;99.90;;;;;;4969103;29;20495;-89
2021/06/24 00:29:27;;;;;;;11.13;5.70;;;12.40;99.90;;;;;;4954317;29;20059;-89
2021/06/24 00:32:08;;;;;;;20.42;5.45;;;12.40;99.90;;;;;;4950687;29;20662;-89
2021/06/24 00:34:45;;;;;;;12.65;5.68;;;12.50;99.90;;;;;;4952732;28;20051;-88
2021/06/24 00:37:19;;;;;;;9.57;4.85;;;11.80;99.90;;;;;;4926334;29;20032;-89
2021/06/24 00:41:01;;;;;;;13.13;5.40;;;12.30;99.90;;;;;;4942309;29;20027;-89
2021/06/24 00:43:40;;;;;;;6.43;4.18;;;11.30;99.90;;;;;;4957307;29;20073;-91
2021/06/24 00:46:33;;;;;;;11.32;4.80;;;12.20;99.90;;;;;;4944469;29;20053;-90
2021/06/24 00:49:06;;;;;;;10.18;4.35;;;12.30;99.90;;;;;;4940656;29;20055;-89
2021/06/24 00:51:46;;;;;;;10.68;5.30;;;12.50;99.90;;;;;;4925172;29;20052;-93
2021/06/24 00:54:19;;;;;;;15.05;4.55;;;12.30;99.90;;;;;;4950655;29;20550;-88
2021/06/24 00:57:16;;;;;;;22.33;6.28;;;12.20;99.90;;;;;;4949604;29;20043;-89
2021/06/24 01:00:14;;;;;;;7.80;4.22;;;12.10;99.90;;;;;;4925567;29;20047;-89
2021/06/24 01:03:36;;;;;;;9.00;4.03;;;12.20;99.90;;;;;;4920941;29;20055;-93
2021/06/24 01:06:20;;;;;;;11.48;4.85;;;13.00;99.90;;;;;;4922895;29;20068;-91
2021/06/24 01:08:51;;;;;;;;;;;12.10;99.90;;;;;;4927243;29;20057;-89
2021/06/24 01:11:30;;;;;;;8.52;4.68;;;11.90;99.90;;;;;;4937258;29;19926;-90
2021/06/24 01:14:21;;;;;;;10.02;4.57;;;11.60;99.90;;;;;;4945695;29;20066;-93
2021/06/24 01:17:28;;;;;;;18.20;5.43;;;11.90;99.90;;;;;;4951431;29;20069;-92
2021/06/24 01:20:08;;;;;;;10.23;3.95;;;12.00;99.90;;;;;;4965253;29;20048;-92
2021/06/24 01:22:52;;;;;;;9.18;3.75;;;11.70;99.90;;;;;;4921099;29;20051;-89
2021/06/24 01:25:25;;;;;;;7.60;4.18;;;11.80;99.90;;;;;;4948327;29;20059;-89
2021/06/24 01:28:01;;;;;;;13.50;4.53;;;11.60;99.90;;;;;;4941941;29;20047;-90
2021/06/24 01:30:42;;;;;;;11.70;6.10;;;11.90;99.90;;;;;;4926921;29;20392;-88
2021/06/24 01:33:30;;;;;;;8.85;4.85;;;11.60;99.90;;;;;;4912294;29;20063;-88
2021/06/24 01:36:05;;;;;;;10.65;4.95;;;11.60;99.90;;;;;;4901191;23;20051;-82
2021/06/24 01:38:43;;;;;;;7.40;4.55;;;11.60;99.90;;;;;;4940353;29;20067;-81
2021/06/24 01:41:31;;;;;;;;;;;11.60;99.90;;;;;;4925043;29;20056;-83
2021/06/24 01:44:05;;;;;;;7.43;4.18;;;11.00;99.90;;;;;;4909277;29;19926;-82
2021/06/24 01:46:34;;;;;;;13.82;4.93;;;11.60;99.90;;;;;;4941028;29;20087;-80
2021/06/24 01:49:03;;;;;;;13.20;4.38;;;11.60;99.90;;;;;;4920496;29;20071;-80
2021/06/24 01:51:34;;;;;;;14.68;5.20;;;11.60;99.90;;;;;;4940916;29;20052;-80
2021/06/24 01:54:03;;;;;;;11.02;4.13;;;11.60;99.90;;;;;;4927663;29;20056;-82
2021/06/24 01:56:35;;;;;;;11.82;4.15;;;11.60;99.90;;;;;;4927766;29;20056;-80
2021/06/24 01:59:05;;;;;;;12.55;4.65;;;11.60;99.90;;;;;;4926493;29;20052;-81
2021/06/24 02:01:39;;;;;;;12.85;4.30;;;11.60;99.90;;;;;;4922980;29;20056;-79
2021/06/24 02:04:15;;;;;;;10.25;4.85;;;11.60;99.90;;;;;;4917084;29;20052;-81
2021/06/24 02:06:44;;;;;;;11.43;4.50;;;11.40;99.90;;;;;;4925985;29;20077;-81
2021/06/24 02:09:36;;;;;;;8.57;4.18;;;11.40;99.90;;;;;;4929050;29;20525;-80
2021/06/24 02:12:12;;;;;;;12.93;4.60;;;11.40;99.90;;;;;;4930029;29;20055;-81
2021/06/24 02:14:56;;;;;;;11.95;6.03;;;11.40;99.90;;;;;;4948931;29;20068;-80
2021/06/24 02:17:25;;;;;;;10.20;4.55;;;11.40;99.90;;;;;;4935743;29;20070;-80
2021/06/24 02:19:59;;;;;;;9.45;5.28;;;11.30;99.90;;;;;;4929479;29;20056;-80
2021/06/24 02:22:50;;;;;;;13.20;5.00;;;11.30;99.90;;;;;;4930844;29;20067;-80
2021/06/24 02:25:23;;;;;;;7.90;4.55;;;11.30;99.90;;;;;;4915515;29;20056;-80
2021/06/24 02:28:12;;;;;;;7.40;3.97;;;11.20;99.90;;;;;;4930145;29;20074;-81
2021/06/24 02:31:13;;;;;;;10.30;5.13;;;11.10;99.90;;;;;;4916652;29;20081;-80
2021/06/24 02:33:44;;;;;;;8.43;4.45;;;11.10;99.90;;;;;;4929861;29;20071;-79
2021/06/24 02:36:22;;;;;;;12.00;5.45;;;11.10;99.90;;;;;;4913625;29;20060;-80
2021/06/24 02:38:51;;;;;;;14.82;5.72;;;11.00;99.90;;;;;;4930476;29;20066;-79
2021/06/24 02:41:19;;;;;;;16.23;6.65;;;11.00;99.90;;;;;;4930809;29;20074;-80
2021/06/24 02:43:49;;;;;;;12.85;5.38;;;11.00;99.90;;;;;;4924867;29;20064;-82
2021/06/24 02:46:18;;;;;;;9.30;5.38;;;11.00;99.90;;;;;;4914118;29;20069;-81
2021/06/24 02:48:53;;;;;;;11.57;5.60;;;11.00;99.90;;;;;;4930356;29;20526;-80
2021/06/24 02:51:33;;;;;;;15.57;5.13;;;11.00;99.90;;;;;;4929975;29;20060;-81
2021/06/24 02:54:15;;;;;;;8.20;5.25;;;11.10;99.90;;;;;;4915246;29;20649;-80
2021/06/24 02:56:46;;;;;;;13.07;6.07;;;11.20;99.90;;;;;;4911379;29;20088;-80
2021/06/24 02:59:38;;;;;;;9.95;4.75;;;11.30;99.90;;;;;;4921975;29;20848;-80
2021/06/24 03:02:08;;;;;;;8.65;5.63;;;11.30;99.90;;;;;;4925440;29;20058;-80
2021/06/24 03:04:42;;;;;;;18.45;6.75;;;11.30;99.90;;;;;;4909323;29;20062;-81
2021/06/24 03:07:14;;;;;;;11.63;5.15;;;11.40;99.90;;;;;;4908854;29;20052;-81
2021/06/24 03:10:04;;;;;;;9.65;5.28;;;11.50;99.90;;;;;;4911728;29;20133;-82
2021/06/24 03:12:41;;;;;;;11.50;4.22;;;11.50;99.90;;;;;;4910057;29;20072;-80
2021/06/24 03:15:12;;;;;;;8.70;4.57;;;11.50;99.90;;;;;;4913801;29;20070;-81
2021/06/24 03:17:42;;;;;;;12.52;5.22;;;11.60;99.90;;;;;;4931319;29;20072;-81
2021/06/24 03:20:12;;;;;;;11.50;5.47;;;11.60;99.90;;;;;;4929975;29;20058;-81
2021/06/24 03:22:42;;;;;;;15.35;5.47;;;11.60;99.90;;;;;;4898058;29;20062;-80
2021/06/24 03:25:12;;;;;;;10.70;4.90;;;11.60;99.90;;;;;;4913564;29;20102;-80
2021/06/24 03:27:41;;;;;;;10.88;5.25;;;11.60;99.90;;;;;;4898054;29;20080;-81
2021/06/24 03:30:27;;;;;;;12.35;4.80;;;11.60;99.90;;;;;;4930870;29;20059;-79
2021/06/24 03:32:56;;;;;;;9.00;4.15;;;11.50;99.90;;;;;;4928534;29;20630;-80
2021/06/24 03:35:26;;;;;;;12.48;6.78;;;11.40;99.90;;;;;;4929882;29;20101;-80
2021/06/24 03:37:57;;;;;;;14.27;4.97;;;11.30;99.90;;;;;;4944389;29;20048;-81
2021/06/24 03:40:25;;;;;;;9.90;4.85;;;12.40;99.90;;;;;;4933136;29;20060;-80
2021/06/24 03:42:58;;;;;;;12.73;5.55;;;11.30;99.90;;;;;;4936202;29;20041;-79
2021/06/24 03:45:28;;;;;;;10.32;5.03;;;11.20;99.90;;;;;;4909557;29;20092;-80
2021/06/24 03:48:01;;;;;;;8.60;5.18;;;11.20;99.90;;;;;;4911003;29;20085;-79
2021/06/24 03:50:30;;;;;;;13.35;5.72;;;11.10;99.90;;;;;;4925495;29;20061;-80
2021/06/24 03:53:02;;;;;;;13.25;4.70;;;11.10;99.90;;;;;;4952144;29;20064;-80
2021/06/24 03:55:40;;;;;;;14.95;6.63;;;11.10;99.90;;;;;;4910526;29;20071;-79
2021/06/24 03:58:29;;;;;;;13.30;5.03;;;10.60;99.90;;;;;;4913952;29;20078;-80
2021/06/24 04:01:00;;;;;;;12.27;5.95;;;11.00;99.90;;;;;;4909649;29;20091;-79
2021/06/24 04:03:34;;;;;;;18.40;5.82;;;11.00;99.90;;;;;;4910690;29;20064;-81
2021/06/24 04:06:13;;;;;;;12.05;5.18;;;11.00;99.90;;;;;;4909031;29;20617;-80
2021/06/24 04:08:42;;;;;;;10.38;5.38;;;11.00;99.90;;;;;;4910549;29;20058;-82
2021/06/24 04:11:17;;;;;;;11.45;5.43;;;11.00;99.90;;;;;;4910240;29;20066;-79
2021/06/24 04:13:53;;;;;;;15.98;7.40;;;11.00;99.90;;;;;;4910046;29;20052;-79
2021/06/24 04:16:54;;;;;;;10.10;5.43;;;11.00;99.90;;;;;;4928823;29;20072;-79
2021/06/24 04:19:23;;;;;;;12.07;5.93;;;11.00;99.90;;;;;;4929182;29;20062;-81
2021/06/24 04:21:58;;;;;;;10.70;5.05;;;11.00;99.90;;;;;;4928924;29;20068;-79
2021/06/24 04:24:41;;;;;;;12.95;5.82;;;11.00;99.90;;;;;;4914085;29;20095;-80
2021/06/24 04:27:11;;;;;;;10.00;5.30;;;11.10;99.90;;;;;;4912401;29;20076;-79
2021/06/24 04:29:40;;;;;;;12.63;6.70;;;11.10;99.90;;;;;;4897004;29;20052;-79
2021/06/24 04:32:09;;;;;;;16.05;6.47;;;11.10;99.90;;;;;;4926826;29;20080;-79
2021/06/24 04:34:39;;;;;;;11.90;5.53;;;11.10;99.90;;;;;;4927484;29;20079;-81
2021/06/24 04:37:13;;;;;;;12.82;7.05;;;11.20;99.90;;;;;;4929550;29;20082;-80
2021/06/24 04:39:45;;;;;;;17.23;6.63;;;11.20;99.90;;;;;;4912702;29;20073;-80
2021/06/24 04:42:20;;;;;;;18.80;7.30;;;11.20;99.90;;;;;;4928729;29;20081;-81
2021/06/24 04:45:13;;;;;;;11.10;5.82;;;11.20;99.90;;;;;;4924257;29;20086;-79
2021/06/24 04:48:05;;;;;;;12.98;7.00;;;11.30;99.90;;;;;;4927864;29;20074;-79
2021/06/24 04:50:36;;;;;;;17.95;6.40;;;11.40;99.90;;;;;;4910565;29;20076;-81
2021/06/24 04:53:05;;;;;;;;;;;11.50;99.90;;;;;;4925145;29;20083;-82
2021/06/24 04:55:44;;;;;;;16.77;6.38;;;11.50;99.90;;;;;;4927109;29;20497;-82
2021/06/24 04:58:19;;;;;;;10.15;6.18;;;11.50;99.90;;;;;;4896045;29;20077;-81
2021/06/24 05:01:08;;;;;;;13.10;6.30;;;11.50;99.90;;;;;;4927683;29;20060;-82
2021/06/24 05:03:59;;;;;;;17.65;8.35;;;11.70;99.90;;;;;;4926237;29;20070;-82
2021/06/24 05:06:31;;;;;;;19.60;6.75;;;11.70;99.90;;;;;;4926279;29;20056;-81
2021/06/24 05:09:00;;;;;;;14.82;7.35;;;11.80;99.90;;;;;;4912217;29;20549;-82
2021/06/24 05:11:28;;;;;;;12.57;6.63;;;11.60;99.90;;;;;;4927343;29;20499;-81
2021/06/24 05:13:56;;;;;;;13.07;7.13;;;11.90;99.90;;;;;;4925041;29;20071;-82
2021/06/24 05:16:24;;;;;;;15.50;7.15;;;12.00;99.90;;;;;;4924594;29;20060;-82
2021/06/24 05:18:53;;;;;;;15.85;7.22;;;12.00;99.90;;;;;;4925432;29;20542;-83
2021/06/24 05:21:22;;;;;;;13.18;7.65;;;12.10;99.90;;;;;;4926753;29;20067;-82
2021/06/24 05:23:50;;;;;;;15.40;7.35;;;12.10;99.90;;;;;;4909410;29;20145;-82
2021/06/24 05:26:19;;;;;;;22.55;7.47;;;12.20;99.90;;;;;;4926435;29;20093;-81
2021/06/24 05:28:50;;;;;;;15.88;8.07;;;12.30;99.90;;;;;;4925425;29;20052;-81
2021/06/24 05:31:18;;;;;;;18.17;7.40;;;12.40;99.90;;;;;;4909134;29;20074;-81
2021/06/24 05:33:46;;;;;;;14.75;6.55;;;12.40;99.90;;;;;;4908272;29;20048;-81
2021/06/24 05:36:14;;;;;;;13.60;6.88;;;12.50;99.90;;;;;;4905903;29;20080;-81
2021/06/24 05:38:42;;;;;;;12.63;7.32;;;12.60;99.90;;;;;;4907335;29;20075;-81
2021/06/24 05:41:12;;;;;;;15.43;6.57;;;13.90;99.90;;;;;;4905916;29;20499;-82
2021/06/24 05:43:40;;;;;;;25.15;8.55;;;12.70;99.90;;;;;;4907282;29;20053;-81
2021/06/24 05:46:10;;;;;;;12.15;6.57;;;12.80;99.90;;;;;;4906148;29;20712;-82
2021/06/24 05:48:38;;;;;;;14.13;7.13;;;12.80;99.90;;;;;;4926530;29;20059;-81
2021/06/24 05:51:07;;;;;;;18.25;8.43;;;12.90;99.90;;;;;;4909954;29;20048;-82
2021/06/24 05:53:35;;;;;;;19.95;7.90;;;13.00;99.90;;;;;;4910348;29;20056;-81
2021/06/24 05:56:04;;;;;;;21.25;8.85;;;13.00;99.90;;;;;;4926005;29;20063;-82
2021/06/24 05:58:35;;;;;;;14.82;7.07;;;13.00;99.90;;;;;;4924598;29;20059;-81
2021/06/24 06:01:05;;;;;;;18.70;8.60;;;13.10;99.90;;;;;;4909911;29;20056;-82
2021/06/24 06:03:35;;;;;;;23.35;9.75;;;13.10;99.90;;;;;;4926712;29;20072;-82
2021/06/24 06:06:04;;;;;;;19.92;10.38;;;13.20;99.90;;;;;;4907080;29;20080;-82
2021/06/24 06:08:32;;;;;;;27.98;11.80;;;13.20;99.90;;;;;;4921049;29;20044;-82
2021/06/24 06:11:01;;;;;;;20.52;9.35;;;13.30;99.90;;;;;;4890167;29;20056;-81
2021/06/24 06:13:30;;;;;;;22.60;10.65;;;13.30;99.90;;;;;;4924944;29;20060;-82
2021/06/24 06:16:00;;;;;;;24.13;11.75;;;13.30;99.90;;;;;;4924867;29;20060;-82
2021/06/24 06:18:29;;;;;;;21.25;11.05;;;13.30;99.90;;;;;;4909743;29;20079;-82
2021/06/24 06:20:59;;;;;;;24.60;10.60;;;13.30;99.90;;;;;;4926100;29;20056;-81
2021/06/24 06:23:29;;;;;;;25.27;11.55;;;13.30;99.90;;;;;;4909478;29;20602;-81
2021/06/24 06:25:58;;;;;;;22.80;10.50;;;13.30;99.90;;;;;;4928775;29;20060;-82
2021/06/24 06:28:29;;;;;;;21.63;10.90;;;13.40;99.90;;;;;;4927451;29;20066;-82
2021/06/24 06:30:59;;;;;;;18.58;9.70;;;13.40;99.90;;;;;;4919809;29;20052;-82
2021/06/24 06:33:28;;;;;;;19.98;9.68;;;13.40;99.90;;;;;;4926760;29;20446;-83
2021/06/24 06:35:57;;;;;;;18.17;8.75;;;13.50;99.90;;;;;;4923560;29;20059;-82
2021/06/24 06:38:25;;;;;;;23.30;10.90;;;13.60;99.90;;;;;;4926552;29;20064;-81
2021/06/24 06:40:53;;;;;;;22.02;11.02;;;13.70;99.90;;;;;;4924880;29;20059;-81
2021/06/24 06:43:22;;;;;;;17.42;11.70;;;13.80;99.90;;;;;;4918458;29;20052;-82
2021/06/24 06:45:54;;;;;;;18.45;8.63;;;13.90;99.90;;;;;;4925617;29;20060;-83
2021/06/24 06:48:25;;;;;;;21.38;10.23;;;14.00;99.90;;;;;;4930058;29;20062;-85
2021/06/24 06:50:53;;;;;;;21.23;10.75;;;14.20;99.90;;;;;;4939524;29;20064;-81
2021/06/24 06:53:23;;;;;;;19.10;10.63;;;14.20;99.90;;;;;;4921365;29;20434;-82
2021/06/24 06:55:54;;;;;;;25.17;10.82;;;14.40;99.90;;;;;;4939195;29;20075;-82
2021/06/24 06:58:24;;;;;;;16.23;9.05;;;14.40;99.90;;;;;;4938618;29;20052;-81
2021/06/24 07:00:54;;;;;;;21.17;10.00;;;14.60;99.90;;;;;;4933594;29;20056;-83
2021/06/24 07:03:30;;;;;;;20.45;9.13;;;14.70;99.90;;;;;;4921958;29;20063;-81
2021/06/24 07:05:59;;;;;;;20.25;9.73;;;14.70;99.90;;;;;;4936044;29;20043;-82
2021/06/24 07:08:29;;;;;;;21.58;9.63;;;14.80;99.90;;;;;;4926017;29;20070;-81
2021/06/24 07:10:58;;;;;;;26.20;10.23;;;15.00;99.90;;;;;;4958418;29;20060;-82
2021/06/24 07:13:26;;;;;;;29.48;9.90;;;15.10;99.90;;;;;;4921975;29;20059;-81
2021/06/24 07:15:57;;;;;;;19.10;10.25;;;15.20;99.90;;;;;;4926931;29;20059;-79
2021/06/24 07:18:25;;;;;;;20.17;10.60;;;15.30;99.90;;;;;;4932550;29;20056;-79
2021/06/24 07:20:58;;;;;;;22.30;9.40;;;15.40;99.90;;;;;;4927362;29;20486;-79
2021/06/24 07:23:26;;;;;;;15.77;8.30;;;15.50;99.90;;;;;;4921870;29;20052;-81
2021/06/24 07:25:54;;;;;;;18.17;9.43;;;15.60;99.90;;;;;;4908976;29;20059;-79
2021/06/24 07:28:23;;;;;;;20.30;9.82;;;15.70;99.90;;;;;;4925769;29;20044;-81
2021/06/24 07:30:54;;;;;;;20.90;12.05;;;15.80;99.90;;;;;;4922814;29;20055;-82
2021/06/24 07:33:22;;;;;;;;;;;15.90;99.90;;;;;;4924677;29;20052;-79
2021/06/24 07:35:51;;;;;;;17.48;10.20;;;16.00;99.90;;;;;;4920051;29;19923;-79
2021/06/24 07:38:20;;;;;;;26.05;11.60;;;17.40;99.90;;;;;;4892635;29;20056;-81
2021/06/24 07:40:52;;;;;;;24.98;10.52;;;16.10;99.90;;;;;;4923117;29;20066;-80
2021/06/24 07:43:21;;;;;;;21.75;9.65;;;16.20;99.90;;;;;;4923663;29;20048;-79
2021/06/24 07:45:54;;;;;;;19.83;10.15;;;16.30;99.90;;;;;;4925124;29;20063;-80
2021/06/24 07:48:23;;;;;;;19.50;9.93;;;16.40;99.90;;;;;;4940001;29;20052;-79
2021/06/24 07:50:52;;;;;;;22.80;11.05;;;16.40;99.90;;;;;;4925944;29;20048;-80
2021/06/24 07:53:20;;;;;;;19.52;9.32;;;16.50;99.90;;;;;;4926164;29;20071;-80
2021/06/24 07:55:48;;;;;;;18.00;10.52;;;16.60;99.90;;;;;;4924343;29;20056;-79
2021/06/24 07:58:17;;;;;;;18.20;9.70;;;16.60;99.90;;;;;;4923056;29;20059;-79
2021/06/24 08:00:45;;;;;;;27.55;11.02;;;16.70;99.90;;;;;;4923540;29;20063;-79
2021/06/24 08:03:28;;;;;;;21.55;9.70;;;16.80;99.90;;;;;;4924342;29;20067;-79
2021/06/24 08:05:57;;;;;;;23.90;10.85;;;16.90;99.90;;;;;;4908137;29;20052;-79
2021/06/24 08:08:26;;;;;;;21.40;10.27;;;17.10;99.90;;;;;;4925125;29;20060;-80
2021/06/24 08:10:56;;;;;;;22.13;10.25;;;17.10;99.90;;;;;;4923265;29;20476;-80
2021/06/24 08:13:26;;;;;;;21.92;11.93;;;17.20;99.90;;;;;;4938406;29;20091;-80
2021/06/24 08:15:57;;;;;;;31.70;11.77;;;17.40;99.90;;;;;;4938666;29;20064;-80
2021/06/24 08:18:25;;;;;;;25.65;10.93;;;17.50;99.90;;;;;;4922146;29;20063;-80
2021/06/24 08:20:57;;;;;;;24.40;11.35;;;17.70;99.90;;;;;;4938494;29;20059;-79
2021/06/24 08:23:27;;;;;;;18.60;10.48;;;17.80;99.90;;;;;;4908070;29;20060;-79
2021/06/24 08:25:55;;;;;;;25.60;10.00;;;17.90;99.90;;;;;;4924147;29;20052;-80
2021/06/24 08:28:24;;;;;;;24.38;12.13;;;18.00;99.90;;;;;;4924909;29;20056;-79
2021/06/24 08:30:54;;;;;;;20.17;10.77;;;18.10;99.90;;;;;;4926410;29;20052;-80
2021/06/24 08:33:23;;;;;;;24.27;10.77;;;18.20;99.90;;;;;;4923026;29;20063;-79
2021/06/24 08:35:51;;;;;;;23.10;11.38;;;18.30;99.90;;;;;;4917128;29;20052;-79
2021/06/24 08:38:19;;;;;;;16.02;9.20;;;18.30;99.90;;;;;;4923321;29;20456;-79
2021/06/24 08:40:59;;;;;;;28.05;11.10;;;18.40;99.90;;;;;;4922315;29;20048;-80
2021/06/24 08:43:28;;;;;;;20.52;11.75;;;18.40;99.90;;;;;;4926120;29;20070;-80
2021/06/24 08:46:07;;;;;;;23.92;11.80;;;18.50;99.90;;;;;;4925739;29;20050;-79
2021/06/24 08:48:37;;;;;;;23.27;11.63;;;18.60;99.90;;;;;;4920213;29;20068;-80
2021/06/24 08:51:07;;;;;;;23.15;10.77;;;18.70;99.90;;;;;;4922561;29;20067;-80
2021/06/24 08:53:36;;;;;;;22.40;11.57;;;18.80;99.90;;;;;;4906602;29;20493;-79
2021/06/24 08:56:04;;;;;;;22.35;13.27;;;18.90;99.90;;;;;;4922203;29;20048;-80
2021/06/24 08:58:33;;;;;;;24.23;10.88;;;19.00;99.90;;;;;;4921402;29;20052;-79
2021/06/24 09:01:02;;;;;;;24.73;12.02;;;19.10;99.90;;;;;;4922083;29;20048;-80
2021/06/24 09:03:40;;;;;;;20.60;11.07;;;19.20;99.90;;;;;;4921034;29;20320;-80
2021/06/24 09:06:09;;;;;;;25.48;12.15;;;19.30;99.90;;;;;;4921737;29;20048;-79
2021/06/24 09:08:59;;;;;;;23.83;11.20;;;19.40;99.90;;;;;;4922147;29;20439;-81
2021/06/24 09:11:28;;;;;;;24.48;10.85;;;19.40;99.90;;;;;;4920343;29;20044;-80
2021/06/24 09:13:59;;;;;;;21.88;12.23;;;19.50;99.90;;;;;;4919292;29;20181;-84
2021/06/24 09:16:30;;;;;;;28.55;12.70;;;19.50;99.90;;;;;;4921936;29;20060;-79
2021/06/24 09:19:22;;;;;;;20.77;10.68;;;19.60;99.90;;;;;;4903583;29;20509;-80
2021/06/24 09:22:01;;;;;;;17.92;9.52;;;19.70;99.90;;;;;;4923712;29;20776;-79
2021/06/24 09:24:35;;;;;;;19.80;10.85;;;19.70;99.90;;;;;;4924776;29;20052;-79
2021/06/24 09:27:22;;;;;;;23.85;9.98;;;19.80;99.90;;;;;;4924117;29;20064;-79
2021/06/24 09:30:00;;;;;;;19.60;10.35;;;19.90;99.90;;;;;;4926120;29;20051;-80
2021/06/24 09:32:42;;;;;;;22.85;10.13;;;20.00;99.90;;;;;;4922478;29;20041;-80
2021/06/24 09:35:25;;;;;;;19.85;10.70;;;20.10;99.90;;;;;;4932133;28;20063;-80
2021/06/24 09:38:14;;;;;;;20.58;9.07;;;20.20;99.90;;;;;;4959170;28;20062;-80
2021/06/24 09:40:54;;;;;;;20.73;9.50;;;20.20;99.90;;;;;;4948173;29;20070;-79
2021/06/24 09:43:32;;;;;;;23.15;10.25;;;20.40;99.90;;;;;;4952033;28;20054;-80
2021/06/24 09:46:02;;;;;;;18.98;10.77;;;20.50;99.90;;;;;;4959669;28;20059;-80
2021/06/24 09:48:44;;;;;;;19.77;10.85;;;20.50;99.90;;;;;;4943844;28;20059;-81
2021/06/24 09:51:18;;;;;;;18.95;9.75;;;20.60;99.90;;;;;;4928214;28;20060;-80
2021/06/24 09:53:50;;;;;;;19.77;11.45;;;20.80;99.90;;;;;;4962859;28;20056;-80
2021/06/24 09:56:44;;;;;;;16.25;9.52;;;21.10;99.90;;;;;;4949270;28;20061;-80
2021/06/24 09:59:16;;;;;;;21.00;10.95;;;21.00;99.00;;;;;;4911922;29;20055;-81
2021/06/24 10:01:45;;;;;;;22.80;10.68;;;21.00;99.10;;;;;;4966804;28;20065;-80
2021/06/24 10:04:21;;;;;;;24.80;12.38;;;21.10;99.40;;;;;;4931299;28;20050;-80
2021/06/24 10:06:56;;;;;;;20.10;11.55;;;21.20;98.80;;;;;;4946599;28;20051;-80
2021/06/24 10:09:28;;;;;;;24.92;13.55;;;21.30;98.60;;;;;;4931065;28;20492;-81
2021/06/24 10:11:56;;;;;;;25.15;13.75;;;21.30;98.20;;;;;;4971003;28;20043;-80
2021/06/24 10:14:25;;;;;;;26.00;13.95;;;21.40;98.00;;;;;;4952505;28;20058;-80
2021/06/24 10:17:03;;;;;;;29.75;14.13;;;21.50;98.10;;;;;;4929903;29;20051;-80
2021/06/24 10:19:37;;;;;;;30.15;14.85;;;21.60;97.80;;;;;;4933076;29;20043;-80
2021/06/24 10:22:20;;;;;;;30.00;14.27;;;21.70;97.50;;;;;;4954245;28;20050;-80
2021/06/24 10:24:52;;;;;;;25.13;13.90;;;21.80;97.20;;;;;;4959860;28;20047;-80
2021/06/24 10:27:24;;;;;;;27.45;14.48;;;21.90;97.10;;;;;;4959059;28;20405;-80
2021/06/24 10:29:53;;;;;;;24.88;14.85;;;22.00;97.20;;;;;;4970659;28;20058;-80
2021/06/24 10:32:33;;;;;;;25.65;14.10;;;22.00;97.20;;;;;;4955460;28;20055;-80
2021/06/24 10:35:07;;;;;;;32.15;16.48;;;22.20;96.90;;;;;;4958399;28;20059;-80
2021/06/24 10:37:48;;;;;;;21.80;14.40;;;22.30;96.90;;;;;;4973195;28;20063;-80
2021/06/24 10:40:38;;;;;;;26.25;14.82;;;22.40;96.90;;;;;;4945242;28;20039;-81
2021/06/24 10:43:08;;;;;;;25.38;14.18;;;22.50;95.90;;;;;;4954289;28;20059;-79
2021/06/24 10:45:38;;;;;;;29.85;15.10;;;22.50;96.00;;;;;;4969021;28;20051;-80
2021/06/24 10:48:25;;;;;;;26.02;15.88;;;22.50;96.30;;;;;;4953950;28;20975;-78
2021/06/24 10:50:59;;;;;;;33.65;15.35;;;22.50;95.70;;;;;;4958041;28;20055;-80
2021/06/24 10:53:28;;;;;;;28.92;16.77;;;22.60;95.70;;;;;;4946295;28;20051;-80
2021/06/24 10:55:56;;;;;;;32.28;17.35;;;22.70;96.00;;;;;;4954469;28;20055;-81
2021/06/24 10:58:27;;;;;;;27.95;15.38;;;22.80;95.90;;;;;;4945551;29;20082;-81
2021/06/24 11:00:57;;;;;;;36.40;15.57;;;22.90;95.40;;;;;;4943181;29;20069;-80
2021/06/24 11:03:32;;;;;;;24.10;13.77;;;23.10;94.70;;;;;;4961385;29;20058;-80
2021/06/24 11:06:16;;;;;;;29.17;16.27;;;23.20;94.60;;;;;;4934029;29;20074;-80
2021/06/24 11:08:45;;;;;;;24.35;15.00;;;23.50;94.10;;;;;;4930569;29;20062;-81
2021/06/24 11:11:16;;;;;;;25.00;15.30;;;23.60;93.60;;;;;;4926635;29;20052;-80
2021/06/24 11:13:47;;;;;;;27.75;17.23;;;23.70;93.30;;;;;;4928663;28;20051;-82
2021/06/24 11:16:16;;;;;;;24.02;14.48;;;23.80;93.10;;;;;;4971316;28;20058;-81
2021/06/24 11:18:48;;;;;;;31.00;17.98;;;24.00;93.60;;;;;;4926508;28;20046;-81
2021/06/24 11:21:30;;;;;;;29.27;15.68;;;24.10;93.10;;;;;;4960059;28;20051;-80
2021/06/24 11:24:06;;;;;;;23.30;13.20;;;24.20;92.60;;;;;;4928621;29;20437;-81
2021/06/24 11:26:43;;;;;;;23.27;14.00;;;24.30;92.40;;;;;;4931131;29;20051;-84
2021/06/24 11:29:20;;;;;;;23.75;14.45;;;24.60;91.60;;;;;;4951280;29;20051;-84
2021/06/24 11:32:12;;;;;;;27.25;13.85;;;24.60;91.50;;;;;;4935653;29;20051;-84
2021/06/24 11:37:18;;;;;;;29.75;14.27;;;24.80;91.40;;;;;;4948662;29;20054;-85
2021/06/24 11:39:55;;;;;;;21.50;12.80;;;24.90;91.10;;;;;;4946886;28;20062;-86
2021/06/24 11:42:31;;;;;;;21.13;12.18;;;25.00;90.90;;;;;;4952605;28;20055;-84
2021/06/24 11:45:01;;;;;;;26.20;12.73;;;24.90;90.30;;;;;;4972119;28;20436;-84
2021/06/24 11:47:32;;;;;;;24.38;13.77;;;24.80;90.30;;;;;;4959216;28;20051;-85
2021/06/24 12:04:04;;;;;;;29.98;18.17;;;24.00;91.10;;;;;;4965166;29;19926;-84
2021/06/24 12:07:06;;;;;;;26.80;16.50;;;23.80;91.70;;;;;;4947637;29;20123;-84
2021/06/24 12:09:52;;;;;;;26.17;13.70;;;23.70;91.80;;;;;;4964194;29;20059;-84
2021/06/24 12:12:24;;;;;;;28.48;14.82;;;24.10;91.80;;;;;;4947023;29;20051;-84
2021/06/24 12:14:58;;;;;;;23.70;13.07;;;23.60;91.60;;;;;;4958614;29;20059;-84
2021/06/24 12:17:29;;;;;;;24.75;13.48;;;24.40;91.70;;;;;;4929300;29;20055;-84
2021/06/24 12:20:12;;;;;;;29.13;14.90;;;23.70;91.50;;;;;;4928764;29;20056;-86
2021/06/24 12:22:52;;;;;;;25.35;13.57;;;24.00;91.30;;;;;;4951011;29;20054;-83
2021/06/24 12:25:29;;;;;;;24.40;13.57;;;24.30;91.20;;;;;;4948172;28;20047;-84
2021/06/24 12:28:01;;;;;;;32.85;15.18;;;24.60;90.50;;;;;;4953153;29;20066;-84
2021/06/24 12:30:34;;;;;;;24.60;13.82;;;24.80;90.20;;;;;;4953385;28;20634;-84
2021/06/24 12:33:09;;;;;;;24.70;14.32;;;24.80;90.30;;;;;;4954491;28;20042;-84
2021/06/24 12:35:42;;;;;;;22.75;12.73;;;24.90;90.10;;;;;;4965991;28;20059;-84
2021/06/24 12:38:13;;;;;;;26.58;13.50;;;25.00;90.00;;;;;;4955269;28;20066;-84
2021/06/24 12:40:50;;;;;;;24.13;13.93;;;25.10;90.20;;;;;;4947910;29;20051;-86
2021/06/24 12:43:27;;;;;;;24.08;14.70;;;25.20;88.90;;;;;;4965933;28;20043;-85
2021/06/24 12:46:01;;;;;;;20.95;12.63;;;25.20;88.70;;;;;;4950167;28;20055;-85
2021/06/24 12:48:30;;;;;;;18.92;11.90;;;25.10;88.70;;;;;;4947538;29;20055;-84
2021/06/24 12:51:20;;;;;;;25.27;13.88;;;25.10;89.70;;;;;;4943646;29;20527;-83
2021/06/24 12:53:53;;;;;;;19.20;11.35;;;25.00;88.40;;;;;;4923651;29;20520;-83
2021/06/24 12:56:26;;;;;;;22.35;11.95;;;25.00;89.00;;;;;;4961504;29;20082;-83
2021/06/24 12:59:07;;;;;;;21.08;12.45;;;25.00;88.90;;;;;;4946260;29;20071;-82
2021/06/24 13:01:41;;;;;;;23.35;12.45;;;25.00;88.90;;;;;;4963025;29;20066;-83
2021/06/24 13:04:16;;;;;;;20.52;11.32;;;25.00;88.70;;;;;;4926959;29;20048;-83
2021/06/24 13:06:46;;;;;;;21.77;10.75;;;25.00;88.60;;;;;;4926635;29;20059;-83
2021/06/24 13:09:33;;;;;;;27.55;13.63;;;25.00;89.40;;;;;;4931188;29;20070;-82
2021/06/24 13:12:04;;;;;;;26.58;12.52;;;24.90;89.20;;;;;;4945783;29;20051;-82
2021/06/24 13:14:44;;;;;;;22.25;13.27;;;23.80;89.60;;;;;;4939972;28;20047;-82
2021/06/24 13:17:16;;;;;;;29.63;12.90;;;24.70;89.90;;;;;;4957394;29;20047;-82
2021/06/24 13:19:59;;;;;;;19.40;11.75;;;24.60;90.10;;;;;;4915431;28;20054;-82
2021/06/24 13:22:42;;;;;;;25.92;12.55;;;24.70;90.20;;;;;;4943032;29;20063;-81
2021/06/24 13:25:22;;;;;;;24.33;12.88;;;24.60;90.40;;;;;;4929843;29;20043;-83
2021/06/24 13:28:05;;;;;;;22.80;13.23;;;24.50;90.20;;;;;;4943502;29;20059;-83
2021/06/24 13:30:41;;;;;;;25.65;13.80;;;24.50;90.30;;;;;;4945211;29;20055;-83